Stanfield, NC (28163)

12:50 EDT le 29 août 2015 (GMT -0400)
Bost Creek | | Change Station
CLOSE
Current Station
Stations météorologiques personnelles
Location: Midland, NC
Altitude: 528 ft
Stations météo à proximité

Alt. 528 ft 35.29 °N, 80.49 °W | Updated 5 minutes ago

Ciel dégagé
Ciel dégagé
84.2 ° F
Paraît 89 ° F
N
0.0
Vent Variable Vent de Ouest
Gusts 3.8 mph

Aujourd'hui
Haut(e) -- | Bas -- ° F
--% Risque de précip.
Hier
Haut(e) -- | Bas -- ° F
Precip. -- pouce
6:51 AM 7:52 PM
Pleine lune, 100% visible
Pression 30.28 pouce
Visibilité 10.0 Miles terrestres
Nuages Ciel dégagé
indice de chaleur 89 ° F
Point de rosée 70 ° F
Humidité 63%
Précipitations 0.00 pouce
Profondeur de la couche neigeuse Non disponible.
UV 10 sur 12
Pollen 8.70 sur 12
Qualité de l'air Non disponible.
Flu Activity Non disponible.
METAR KVUJ 291635Z AUTO 00000KT 10SM CLR 26/17 A3028 RMK AO2 LTG DSNT E
Pression 30.28 pouce
Visibilité 10.0 Miles terrestres
Nuages Ciel dégagé
indice de chaleur 89 ° F
Point de rosée 70 ° F
Humidité 63%
Précipitations 0.00 pouce
Profondeur de la couche neigeuse Non disponible.
UV 10 sur 12
Pollen 8.70 sur 12
Qualité de l'air Non disponible.
Flu Activity Non disponible.
METAR KVUJ 291635Z AUTO 00000KT 10SM CLR 26/17 A3028 RMK AO2 LTG DSNT E

10-Day Weather Forecast

×

Almanac

Astronomie

Aug. 29, 2015 Lever Coucher
Temps réel
Crépuscule civil
Crépuscule nautique
Crépuscule astronomique
Lune
Durée de lumière visible
Longueur du jour
Tomorrow will be .
, % of the Moon is Illuminated

Extrêmes aujourd'hui

State Highs State Lows

Community

WunderPhotos

Upload Photos

1,850,722 Photos téléchargées !

WunderBlogs® & News

Nearby

Qualité de l'air

  Qualité de l'air Indice de la qualité de l'air Polluant
Not available.

Épaisseur de neige

Station Depth Altitude

Activité sismique

Ville Distance Mag. Time & Date
Minimum magnitude displayed is 2.5.

Températures des eaux côtières

Lieu Température

Stations

Stations météo à proximité

Emplacement de la station Température Refroidissement éolien Point de rosée Humidité Vent Precip. Alt. Mise à jour Type